Time;durP1;ratioP1;P1;durP2;ratioP2;P2;SDS_P1;SDS_P2;PMS_P1;PMS_P2;Temp;Humidity;BMP_temperature;BMP_pressure;BME280_temperature;BME280_humidity;BME280_pressure;Samples;Min_cycle;Max_cycle;Signal;HPM_P1;HPM_P2
2020/12/21 00:01:44;;;;;;;16.52;10.35;;;;;;;1.95;88.44;101923.43;1747631;81;21263;-70
2020/12/21 00:04:12;;;;;;;14.63;10.05;;;;;;;1.92;88.33;101928.96;1814326;79;20910;-70
2020/12/21 00:06:41;;;;;;;17.82;10.38;;;;;;;1.90;88.42;101930.23;1747613;82;21003;-70
2020/12/21 00:09:09;;;;;;;16.37;11.75;;;;;;;1.89;88.53;101929.80;1814369;79;20922;-70
2020/12/21 00:11:40;;;;;;;16.85;10.80;;;;;;;1.88;88.57;101925.92;1747733;82;21011;-70
2020/12/21 00:14:09;;;;;;;14.60;9.58;;;;;;;1.89;88.63;101934.07;1814521;79;21192;-70
2020/12/21 00:16:45;;;;;;;18.27;11.12;;;;;;;1.88;88.71;101928.48;1814500;79;21021;-70
2020/12/21 00:19:18;;;;;;;32.15;24.47;;;;;;;1.89;88.74;101931.50;1747822;81;21648;-70
2020/12/21 00:21:50;;;;;;;25.40;19.75;;;;;;;1.89;88.76;101929.80;1814462;79;20997;-70
2020/12/21 00:24:20;;;;;;;20.27;15.30;;;;;;;1.88;88.66;101929.35;1814283;79;20918;-70
2020/12/21 00:26:51;;;;;;;22.65;14.70;;;;;;;1.88;88.71;101923.36;1747738;82;21335;-70
2020/12/21 00:29:19;;;;;;;20.12;12.20;;;;;;;1.87;88.71;101931.91;1814594;79;20946;-70
2020/12/21 00:31:48;;;;;;;20.68;10.55;;;;;;;1.86;88.79;101938.75;1747810;82;20920;-70
2020/12/21 00:34:17;;;;;;;17.02;9.65;;;;;;;1.85;88.85;101934.87;1814542;78;21119;-70
2020/12/21 00:36:50;;;;;;;14.38;9.58;;;;;;;1.85;88.90;101937.45;1814575;79;20973;-70
2020/12/21 00:39:18;;;;;;;13.50;9.30;;;;;;;1.84;88.93;101931.45;1814631;79;21262;-70
2020/12/21 00:41:49;;;;;;;14.65;9.40;;;;;;;1.83;89.03;101934.86;1814532;79;21037;-70
2020/12/21 00:44:17;;;;;;;16.57;10.18;;;;;;;1.84;89.09;101928.88;1814480;79;21025;-70
2020/12/21 00:46:46;;;;;;;14.80;9.70;;;;;;;1.84;89.14;101924.17;1747709;81;21051;-70
2020/12/21 00:49:14;;;;;;;18.55;10.32;;;;;;;1.85;89.20;101931.89;1814638;79;21570;-70
2020/12/21 00:51:43;;;;;;;20.55;11.18;;;;;;;1.87;89.21;101931.91;1780668;79;21209;-70
2020/12/21 00:54:12;;;;;;;22.10;12.70;;;;;;;1.89;89.14;101931.08;1812290;79;20902;-70
2020/12/21 00:56:40;;;;;;;17.15;11.95;;;;;;;1.89;89.02;101929.80;1807102;79;21623;-70
2020/12/21 00:59:08;;;;;;;17.05;11.05;;;;;;;1.89;88.99;101941.77;1728317;83;20942;-70
2020/12/21 01:01:37;;;;;;;27.82;10.78;;;;;;;1.89;89.04;101938.78;1807103;78;21010;-70
2020/12/21 01:04:06;;;;;;;17.40;9.53;;;;;;;1.89;89.00;101937.50;1728292;83;21215;-70
2020/12/21 01:06:35;;;;;;;13.13;9.18;;;;;;;1.90;89.10;101935.79;1806989;79;21057;-70
2020/12/21 01:09:09;;;;;;;13.30;8.88;;;;;;;1.90;89.06;101937.08;1807205;78;21586;-70
2020/12/21 01:11:34;;;;;;;14.60;8.95;;;;;;;1.91;88.96;101934.95;1806946;78;21045;-70
2020/12/21 01:14:02;;;;;;;14.30;9.20;;;;;;;1.88;88.94;101933.62;1807122;79;20934;-70
2020/12/21 01:16:30;;;;;;;22.02;9.18;;;;;;;1.87;88.97;101934.05;1807084;79;21145;-70
2020/12/21 01:18:58;;;;;;;17.82;9.20;;;;;;;1.89;88.98;101937.92;1807117;79;21041;-70
2020/12/21 01:21:28;;;;;;;16.05;10.38;;;;;;;1.89;88.96;101932.36;1807113;78;20970;-70
2020/12/21 01:23:57;;;;;;;16.73;10.03;;;;;;;1.91;88.97;101935.81;1807071;79;21001;-70
2020/12/21 01:26:26;;;;;;;13.00;9.58;;;;;;;1.93;88.96;101932.83;1728318;83;21017;-70
2020/12/21 01:28:54;;;;;;;15.68;9.73;;;;;;;1.94;88.87;101925.98;1807193;79;22202;-70
2020/12/21 01:31:22;;;;;;;17.55;10.10;;;;;;;1.94;88.83;101926.84;1807058;79;20946;-71
2020/12/21 01:33:53;;;;;;;12.07;8.68;;;;;;;1.94;88.83;101933.27;1807110;79;21349;-70
2020/12/21 01:36:22;;;;;;;18.73;9.85;;;;;;;1.96;88.66;101930.30;1807105;79;20946;-70
2020/12/21 01:38:50;;;;;;;15.88;9.58;;;;;;;1.95;88.63;101929.86;1807174;79;20937;-70
2020/12/21 01:41:18;;;;;;;17.48;8.98;;;;;;;1.93;88.46;101934.11;1807090;79;21253;-70
2020/12/21 01:43:46;;;;;;;13.70;8.60;;;;;;;1.91;88.46;101933.23;1807013;79;20994;-70
2020/12/21 01:46:16;;;;;;;12.90;9.15;;;;;;;1.88;88.50;101929.35;1807180;79;21681;-70
2020/12/21 01:48:45;;;;;;;14.95;8.90;;;;;;;1.85;88.57;101931.89;1807088;79;21060;-70
2020/12/21 01:51:26;;;;;;;12.78;8.43;;;;;;;1.86;88.66;101932.33;1807111;79;20927;-70
2020/12/21 01:53:55;;;;;;;16.12;9.93;;;;;;;1.86;88.66;101934.89;1807079;79;21139;-70
2020/12/21 01:56:23;;;;;;;16.30;9.68;;;;;;;1.87;88.66;101930.62;1807026;79;21040;-70
2020/12/21 01:58:52;;;;;;;14.25;9.58;;;;;;;1.84;88.52;101935.30;1807195;79;20887;-70
2020/12/21 02:01:20;;;;;;;13.88;9.60;;;;;;;1.81;88.56;101930.56;1807083;79;20883;-70
2020/12/21 02:03:48;;;;;;;26.15;15.90;;;;;;;1.78;88.57;101936.52;1807119;79;20926;-70
2020/12/21 02:06:17;;;;;;;18.10;11.10;;;;;;;1.74;88.63;101928.34;1728397;83;22259;-70
2020/12/21 02:08:47;;;;;;;23.67;11.63;;;;;;;1.73;88.73;101934.75;1806970;79;21024;-70
2020/12/21 02:11:15;;;;;;;20.52;11.70;;;;;;;1.67;88.78;101930.41;1807069;79;20998;-70
2020/12/21 02:13:44;;;;;;;17.35;10.93;;;;;;;1.64;88.94;101928.66;1728279;83;21053;-69
2020/12/21 02:16:15;;;;;;;16.62;10.32;;;;;;;1.62;89.15;101930.35;1807102;79;20910;-70
2020/12/21 02:18:43;;;;;;;20.02;10.75;;;;;;;1.60;89.18;101932.05;1728440;83;22014;-70
2020/12/21 02:21:11;;;;;;;14.93;9.88;;;;;;;1.58;89.37;101927.77;1806976;78;20966;-70
2020/12/21 02:23:40;;;;;;;14.78;10.08;;;;;;;1.58;89.41;101929.05;1807077;79;20934;-70
2020/12/21 02:26:08;;;;;;;26.70;10.50;;;;;;;1.58;89.51;101923.91;1728341;83;20989;-70
2020/12/21 02:28:36;;;;;;;21.25;11.85;;;;;;;1.55;89.64;101923.45;1807072;78;20986;-70
2020/12/21 02:31:05;;;;;;;18.92;11.40;;;;;;;1.54;89.72;101923.02;1728306;83;21276;-70
2020/12/21 02:33:34;;;;;;;17.98;10.80;;;;;;;1.53;89.77;101925.14;1807050;79;21627;-70
2020/12/21 02:36:02;;;;;;;16.00;9.38;;;;;;;1.53;89.81;101923.86;1728273;83;20950;-70
2020/12/21 02:38:31;;;;;;;14.53;9.53;;;;;;;1.50;89.86;101922.54;1802214;79;21001;-70
2020/12/21 02:40:59;;;;;;;26.40;15.40;;;;;;;1.51;90.01;101921.70;1807086;79;20899;-70
2020/12/21 02:43:28;;;;;;;21.95;13.05;;;;;;;1.53;90.15;101921.72;1728287;83;21192;-70
2020/12/21 02:45:56;;;;;;;21.60;12.88;;;;;;;1.55;90.19;101920.89;1807105;79;21436;-70
2020/12/21 02:48:25;;;;;;;21.20;13.18;;;;;;;1.56;90.00;101919.18;1728295;82;21032;-70
2020/12/21 02:50:56;;;;;;;22.30;14.10;;;;;;;1.53;89.91;101920.43;1807018;78;21033;-71
2020/12/21 02:53:25;;;;;;;19.87;10.63;;;;;;;1.53;89.99;101914.87;1807041;79;21029;-70
2020/12/21 02:55:53;;;;;;;18.85;11.38;;;;;;;1.55;90.04;101913.61;1807018;79;21270;-70
2020/12/21 02:58:21;;;;;;;17.32;10.93;;;;;;;1.54;90.08;101915.31;1728233;83;20973;-70
2020/12/21 03:00:50;;;;;;;16.87;11.03;;;;;;;1.56;90.12;101916.62;1807111;78;20934;-70
2020/12/21 03:03:18;;;;;;;15.45;10.03;;;;;;;1.55;90.10;101913.19;1807017;79;20982;-70
2020/12/21 03:05:47;;;;;;;17.20;10.75;;;;;;;1.57;90.12;101929.47;1807095;79;20974;-70
2020/12/21 03:08:16;;;;;;;15.68;10.48;;;;;;;1.59;90.19;101930.34;1807020;79;21642;-70
2020/12/21 03:10:45;;;;;;;30.68;18.85;;;;;;;1.61;90.13;101923.50;1728211;83;20981;-70
2020/12/21 03:13:14;;;;;;;26.30;17.60;;;;;;;1.60;90.01;101934.61;1807034;79;21009;-70
2020/12/21 03:15:43;;;;;;;28.12;19.27;;;;;;;1.59;90.03;101930.34;1728249;83;21360;-70
2020/12/21 03:18:11;;;;;;;22.32;15.03;;;;;;;1.57;90.02;101928.61;1807090;79;20887;-70
2020/12/21 03:20:39;;;;;;;51.65;27.67;;;;;;;1.57;89.99;101940.16;1728364;82;22202;-70
2020/12/21 03:23:08;;;;;;;101.47;47.62;;;;;;;1.55;90.02;101930.30;1807024;79;20958;-70
2020/12/21 03:25:36;;;;;;;130.30;67.47;;;;;;;1.54;90.07;101935.85;1807109;79;20947;-70
2020/12/21 03:28:06;;;;;;;39.15;19.52;;;;;;;1.52;90.10;101932.41;1728201;83;20964;-70
2020/12/21 03:30:34;;;;;;;21.70;12.45;;;;;;;1.52;90.18;101937.96;1807018;79;21029;-70
2020/12/21 03:33:03;;;;;;;103.50;52.05;;;;;;;1.52;90.23;101937.96;1728374;82;21197;-70
2020/12/21 03:35:32;;;;;;;97.55;51.37;;;;;;;1.53;90.29;101938.41;1807015;79;20957;-70
2020/12/21 03:38:00;;;;;;;111.30;53.28;;;;;;;1.55;90.35;101938.00;1728298;83;20962;-70
2020/12/21 03:40:29;;;;;;;158.42;83.60;;;;;;;1.55;90.26;101934.14;1807017;79;21073;-70
2020/12/21 03:42:58;;;;;;;80.55;44.88;;;;;;;1.54;90.30;101933.28;1728303;83;21005;-70
2020/12/21 03:45:26;;;;;;;108.20;62.15;;;;;;;1.57;90.36;101937.17;1807164;79;21258;-70
2020/12/21 03:47:54;;;;;;;90.25;50.23;;;;;;;1.57;90.41;101930.75;1728372;82;21594;-69
2020/12/21 03:50:22;;;;;;;48.08;30.25;;;;;;;1.57;90.37;101932.46;1807232;79;20954;-69
2020/12/21 03:52:51;;;;;;;55.75;34.20;;;;;;;1.58;90.34;101934.19;1807139;79;20927;-69
2020/12/21 03:55:19;;;;;;;37.90;23.62;;;;;;;1.58;90.19;101945.73;1805867;79;20923;-69
2020/12/21 03:57:47;;;;;;;26.57;19.17;;;;;;;1.58;90.19;101950.45;1803511;79;21190;-69
2020/12/21 04:00:15;;;;;;;27.87;21.10;;;;;;;1.58;90.14;101950.45;1737243;82;21031;-69
2020/12/21 04:02:44;;;;;;;29.98;19.05;;;;;;;1.57;90.14;101942.30;1737299;82;21057;-69
2020/12/21 04:05:15;;;;;;;37.98;22.62;;;;;;;1.58;90.10;101948.30;1716739;83;20938;-69
2020/12/21 04:07:43;;;;;;;57.73;35.40;;;;;;;1.58;90.06;101940.18;1735805;82;20926;-69
2020/12/21 04:10:12;;;;;;;53.83;32.67;;;;;;;1.59;90.08;101944.47;1737294;82;21674;-69
2020/12/21 04:12:42;;;;;;;38.17;22.00;;;;;;;1.63;90.07;101947.91;1735657;82;20947;-69
2020/12/21 04:15:10;;;;;;;43.15;25.55;;;;;;;1.65;90.02;101943.65;1737285;82;21508;-70
2020/12/21 04:17:38;;;;;;;53.52;37.50;;;;;;;1.67;89.93;101944.53;1735636;82;21010;-69
2020/12/21 04:20:06;;;;;;;37.58;26.12;;;;;;;1.70;89.93;101940.71;1737301;82;21049;-69
2020/12/21 04:22:35;;;;;;;30.52;22.62;;;;;;;1.72;89.82;101935.59;1735802;82;22192;-69
2020/12/21 04:25:04;;;;;;;33.08;24.70;;;;;;;1.73;89.84;101942.03;1737213;82;20966;-69
2020/12/21 04:27:34;;;;;;;28.07;18.90;;;;;;;1.73;89.70;101944.59;1735684;82;21045;-69
2020/12/21 04:30:02;;;;;;;34.23;23.52;;;;;;;1.72;89.37;101949.30;1737348;82;20950;-69
2020/12/21 04:32:31;;;;;;;39.65;28.07;;;;;;;1.66;89.48;101941.52;1735700;82;21018;-69
2020/12/21 04:34:59;;;;;;;23.40;17.45;;;;;;;1.65;89.69;101940.66;1737283;82;21245;-70
2020/12/21 04:37:28;;;;;;;22.98;16.57;;;;;;;1.65;89.89;101931.67;1735633;82;21006;-69
2020/12/21 04:39:56;;;;;;;20.85;13.83;;;;;;;1.68;90.02;101928.28;1737243;82;21041;-69
2020/12/21 04:42:24;;;;;;;18.07;12.93;;;;;;;1.69;90.02;101918.45;1735664;82;21030;-69
2020/12/21 04:44:53;;;;;;;19.57;12.75;;;;;;;1.74;89.87;101928.77;1737221;82;20918;-69
2020/12/21 04:47:21;;;;;;;19.07;13.65;;;;;;;1.77;89.73;101932.23;1735721;82;22180;-69
2020/12/21 04:49:49;;;;;;;25.92;16.25;;;;;;;1.80;89.60;101931.41;1737188;82;20942;-69
2020/12/21 04:52:18;;;;;;;24.63;15.32;;;;;;;1.81;89.55;101921.14;1735652;82;20999;-69
2020/12/21 04:54:46;;;;;;;20.80;13.72;;;;;;;1.82;89.33;101920.30;1737318;82;21307;-69
2020/12/21 04:57:14;;;;;;;21.05;13.68;;;;;;;1.82;89.43;101925.44;1735560;82;21049;-70
2020/12/21 04:59:43;;;;;;;21.23;13.58;;;;;;;1.85;89.30;101931.03;1737276;82;21194;-69
2020/12/21 05:02:11;;;;;;;23.30;14.35;;;;;;;1.86;89.27;101927.19;1735617;82;20955;-69
2020/12/21 05:04:40;;;;;;;16.97;12.82;;;;;;;1.89;89.32;101927.65;1737249;82;20959;-69
2020/12/21 05:07:09;;;;;;;19.67;13.40;;;;;;;1.92;89.27;101928.54;1713006;82;20959;-69
2020/12/21 05:09:38;;;;;;;17.95;12.20;;;;;;;1.93;89.20;101930.27;1737282;82;20994;-69
2020/12/21 05:12:07;;;;;;;17.57;12.00;;;;;;;1.97;89.29;101938.86;1735661;82;21022;-69
2020/12/21 05:14:37;;;;;;;54.85;30.15;;;;;;;2.00;89.05;101931.16;1737186;82;21013;-69
2020/12/21 05:17:18;;;;;;;102.47;48.10;;;;;;;2.00;88.78;101937.16;1735781;82;20999;-69
2020/12/21 05:19:46;;;;;;;370.50;144.22;;;;;;;2.00;88.49;101934.58;1737209;82;21034;-69
2020/12/21 05:22:15;;;;;;;327.87;121.65;;;;;;;1.98;88.50;101928.60;1735643;82;21002;-69
2020/12/21 05:24:45;;;;;;;352.70;134.12;;;;;;;1.97;88.43;101926.88;1737212;82;21277;-69
2020/12/21 05:27:17;;;;;;;230.47;91.75;;;;;;;1.96;88.21;101935.86;1735645;82;21493;-69
2020/12/21 05:29:53;;;;;;;65.85;32.28;;;;;;;1.93;88.16;101931.97;1737219;82;20990;-69
2020/12/21 05:32:22;;;;;;;69.30;36.15;;;;;;;1.89;88.12;101933.64;1735795;82;20954;-71
2020/12/21 05:34:50;;;;;;;96.57;46.20;;;;;;;1.86;88.16;101937.89;1737202;82;20915;-69
2020/12/21 05:37:20;;;;;;;50.85;28.40;;;;;;;1.83;88.20;101937.86;1735649;82;21729;-69
2020/12/21 05:39:53;;;;;;;19.98;12.73;;;;;;;1.81;88.22;101947.25;1737112;82;21006;-70
2020/12/21 05:42:26;;;;;;;17.52;11.55;;;;;;;1.79;88.26;101954.08;1735653;82;21003;-70
2020/12/21 05:44:59;;;;;;;17.25;11.28;;;;;;;1.76;88.32;101948.91;1737208;82;21643;-69
2020/12/21 05:47:28;;;;;;;18.52;11.25;;;;;;;1.70;88.43;101957.41;1734001;82;21637;-71
2020/12/21 05:50:04;;;;;;;19.15;11.85;;;;;;;1.66;88.77;101955.64;1737104;82;21201;-70
2020/12/21 05:52:37;;;;;;;13.38;9.95;;;;;;;1.64;88.85;101953.48;1739764;80;20962;-71
2020/12/21 05:55:10;;;;;;;14.70;10.78;;;;;;;1.63;88.86;101960.74;1738912;82;21042;-68
2020/12/21 05:57:39;;;;;;;16.45;11.68;;;;;;;1.57;88.90;101962.84;1779316;80;21578;-68
2020/12/21 06:00:10;;;;;;;19.40;11.18;;;;;;;1.54;89.34;101964.52;1779421;80;20989;-69
2020/12/21 06:02:39;;;;;;;14.78;10.70;;;;;;;1.55;89.77;101969.67;1794556;78;21257;-68
2020/12/21 06:05:12;;;;;;;16.75;11.25;;;;;;;1.56;89.80;101966.68;1761113;79;21140;-72
2020/12/21 06:07:51;;;;;;;13.10;9.83;;;;;;;1.58;89.98;101969.70;1753167;80;21576;-70
2020/12/21 06:10:21;;;;;;;14.85;10.82;;;;;;;1.60;89.87;101978.26;1791718;80;21100;-70
2020/12/21 06:12:54;;;;;;;13.43;9.85;;;;;;;1.58;89.75;101977.41;1763977;80;21106;-70
2020/12/21 06:15:24;;;;;;;14.95;10.13;;;;;;;1.53;89.58;101977.77;1771231;79;21435;-70
2020/12/21 06:17:53;;;;;;;13.95;10.15;;;;;;;1.50;89.74;101974.30;1770653;79;21096;-71
2020/12/21 06:20:24;;;;;;;15.08;10.58;;;;;;;1.47;89.97;101977.70;1756414;80;21072;-70
2020/12/21 06:22:52;;;;;;;13.45;10.88;;;;;;;1.50;90.13;101984.16;1761119;80;22147;-68
2020/12/21 06:25:24;;;;;;;17.50;13.15;;;;;;;1.51;90.03;101982.03;1756989;80;21714;-69
2020/12/21 06:27:55;;;;;;;22.93;17.57;;;;;;;1.51;90.09;101983.31;1756967;81;21207;-68
2020/12/21 06:30:33;;;;;;;30.62;18.73;;;;;;;1.52;90.06;101986.74;1760862;80;21074;-67
2020/12/21 06:33:03;;;;;;;22.58;18.75;;;;;;;1.50;90.01;101990.57;1781230;79;21084;-69
2020/12/21 06:35:43;;;;;;;23.60;17.95;;;;;;;1.49;90.21;101985.41;1735759;80;21053;-68
2020/12/21 06:38:12;;;;;;;18.90;14.68;;;;;;;1.50;90.21;101994.42;1771120;80;21868;-68
2020/12/21 06:40:41;;;;;;;23.07;20.65;;;;;;;1.50;90.14;101996.13;1783516;80;39035;-68
2020/12/21 06:43:13;;;;;;;21.62;19.15;;;;;;;1.49;90.35;101999.53;1759405;80;20998;-69
2020/12/21 06:45:43;;;;;;;14.85;13.13;;;;;;;1.50;90.36;102000.84;1810323;78;20996;-68
2020/12/21 06:48:23;;;;;;;16.50;13.93;;;;;;;1.47;90.35;102001.22;1805978;78;20942;-67
2020/12/21 06:50:52;;;;;;;20.95;16.32;;;;;;;1.44;90.44;102002.04;1815562;79;21642;-67
2020/12/21 06:53:20;;;;;;;18.67;16.27;;;;;;;1.44;90.45;101998.61;1816564;79;21205;-67
2020/12/21 06:55:48;;;;;;;29.30;21.70;;;;;;;1.39;90.48;102000.25;1795670;79;21689;-71
2020/12/21 06:58:17;;;;;;;38.38;26.87;;;;;;;1.37;90.70;102005.37;1781601;79;21018;-70
2020/12/21 07:00:45;;;;;;;17.50;14.38;;;;;;;1.37;90.96;102009.22;1774777;79;21033;-68
2020/12/21 07:03:14;;;;;;;18.17;16.20;;;;;;;1.34;90.93;102002.34;1775118;79;21049;-68
2020/12/21 07:05:43;;;;;;;13.95;12.20;;;;;;;1.33;91.20;102005.75;1742833;80;21746;-68
2020/12/21 07:08:11;;;;;;;17.07;15.25;;;;;;;1.36;91.52;102007.91;1770923;81;21601;-68
2020/12/21 07:10:41;;;;;;;28.70;23.65;;;;;;;1.39;91.59;102010.09;1740777;80;21021;-68
2020/12/21 07:13:12;;;;;;;22.05;18.35;;;;;;;1.39;91.37;102008.81;1739874;81;21508;-68
2020/12/21 07:15:40;;;;;;;18.37;15.95;;;;;;;1.37;91.32;102009.22;1762349;79;20947;-66
2020/12/21 07:18:11;;;;;;;22.20;19.00;;;;;;;1.37;91.35;102009.64;1766009;80;22165;-68
2020/12/21 07:20:41;;;;;;;16.40;13.58;;;;;;;1.36;91.56;102011.34;1741743;81;21081;-69
2020/12/21 07:23:09;;;;;;;23.47;18.50;;;;;;;1.40;91.69;102012.25;1780970;79;22274;-68
2020/12/21 07:25:50;;;;;;;34.45;19.48;;;;;;;1.40;91.59;102005.83;1784038;79;21035;-68
2020/12/21 07:28:27;;;;;;;15.40;11.83;;;;;;;1.43;91.85;102011.01;1769907;79;21664;-68
2020/12/21 07:31:10;;;;;;;52.65;22.20;;;;;;;1.45;91.63;102008.04;1769150;79;22710;-69
2020/12/21 07:33:58;;;;;;;55.33;24.70;;;;;;;1.45;91.76;102002.91;1769038;79;21071;-71
2020/12/21 07:36:37;;;;;;;56.60;24.85;;;;;;;1.54;92.06;102001.74;1889613;76;23569;-70
2020/12/21 07:39:17;;;;;;;42.13;20.70;;;;;;;1.53;92.09;102000.02;1858723;76;20986;-68
2020/12/21 07:41:48;;;;;;;40.75;22.13;;;;;;;1.59;92.17;102006.09;1852735;76;21341;-68
2020/12/21 07:44:34;;;;;;;18.82;12.60;;;;;;;1.63;92.20;102001.41;1839548;77;21069;-68
2020/12/21 07:47:10;;;;;;;14.95;10.05;;;;;;;1.68;92.24;101999.75;1839882;77;21670;-67
2020/12/21 07:49:40;;;;;;;14.63;10.35;;;;;;;1.75;92.11;102006.25;1750738;80;21694;-67
2020/12/21 07:52:09;;;;;;;14.45;11.05;;;;;;;1.79;91.94;102008.02;1771808;81;21612;-67
2020/12/21 07:54:40;;;;;;;16.35;12.07;;;;;;;1.80;91.87;101999.47;1765860;80;21262;-70
2020/12/21 07:57:10;;;;;;;20.10;12.75;;;;;;;1.81;91.87;102003.34;1791597;79;21066;-70
2020/12/21 07:59:39;;;;;;;19.75;13.15;;;;;;;1.84;91.87;101995.67;1814504;79;21054;-69
2020/12/21 08:02:09;;;;;;;15.80;11.53;;;;;;;1.87;91.82;101996.13;1783408;79;21023;-69
2020/12/21 08:04:37;;;;;;;16.15;12.85;;;;;;;1.88;91.75;101991.00;1809590;79;21900;-68
2020/12/21 08:07:08;;;;;;;19.20;15.10;;;;;;;1.91;91.83;101997.88;1760639;79;21174;-68
2020/12/21 08:09:40;;;;;;;14.25;11.20;;;;;;;1.93;91.60;101997.48;1781374;79;21429;-68
2020/12/21 08:12:15;;;;;;;18.62;12.33;;;;;;;1.93;91.48;101998.34;1814287;77;20984;-66
2020/12/21 08:14:45;;;;;;;12.23;10.10;;;;;;;1.95;91.38;102000.92;1772538;79;21071;-66
2020/12/21 08:17:18;;;;;;;15.80;11.88;;;;;;;1.96;91.29;102002.23;1784477;79;20997;-64
2020/12/21 08:19:56;;;;;;;17.62;13.55;;;;;;;1.97;91.16;101998.81;1783058;79;21200;-68
2020/12/21 08:22:27;;;;;;;23.10;14.47;;;;;;;1.99;91.05;102000.98;1786545;80;21085;-68
2020/12/21 08:25:12;;;;;;;23.50;14.10;;;;;;;2.01;90.97;101999.68;1796166;78;21602;-66
2020/12/21 08:27:51;;;;;;;36.85;16.35;;;;;;;2.02;90.80;102001.40;1796131;78;21735;-71
2020/12/21 08:30:24;;;;;;;33.55;17.25;;;;;;;2.05;90.74;101995.44;1780843;78;21104;-70
2020/12/21 08:32:55;;;;;;;31.75;17.98;;;;;;;2.08;90.76;101998.03;1784542;78;21504;-69
2020/12/21 08:35:29;;;;;;;49.05;21.68;;;;;;;2.09;90.66;102008.33;1778885;78;21064;-70
2020/12/21 08:38:11;;;;;;;43.95;22.52;;;;;;;2.11;90.38;102000.64;1796116;78;21044;-68
2020/12/21 08:40:38;;;;;;;43.73;22.40;;;;;;;2.12;90.23;102002.36;1766544;79;21049;-70
2020/12/21 08:43:07;;;;;;;24.20;15.88;;;;;;;2.12;90.17;101995.52;1792090;80;21048;-69
2020/12/21 08:45:38;;;;;;;23.00;15.25;;;;;;;2.14;89.73;101999.39;1802010;79;21610;-66
2020/12/21 08:48:09;;;;;;;38.02;19.62;;;;;;;2.11;89.54;101995.50;1797689;79;21618;-67
2020/12/21 08:50:39;;;;;;;42.10;19.00;;;;;;;2.11;89.52;101994.22;1792022;80;21013;-65
2020/12/21 08:53:08;;;;;;;42.08;20.20;;;;;;;2.14;89.53;101991.67;1787680;79;21131;-68
2020/12/21 08:55:36;;;;;;;89.65;53.08;;;;;;;2.16;89.53;101991.27;1791947;79;21575;-69
2020/12/21 08:58:06;;;;;;;36.17;19.55;;;;;;;2.19;89.48;101984.88;1793212;79;21141;-69
2020/12/21 09:00:35;;;;;;;24.37;15.93;;;;;;;2.23;89.19;101987.49;1797533;79;21036;-69
2020/12/21 09:03:03;;;;;;;19.50;12.55;;;;;;;2.24;88.96;101989.64;1796048;79;21045;-66
2020/12/21 09:05:31;;;;;;;18.65;13.55;;;;;;;2.23;88.72;101977.63;1792710;79;21622;-70
2020/12/21 09:08:00;;;;;;;16.00;11.65;;;;;;;2.20;88.40;101979.75;1799966;79;21507;-67
2020/12/21 09:10:30;;;;;;;12.25;10.58;;;;;;;2.18;88.39;101977.59;1842824;77;21187;-69
2020/12/21 09:12:59;;;;;;;15.95;12.47;;;;;;;2.17;88.25;101979.72;1847734;77;21668;-71
2020/12/21 09:15:28;;;;;;;26.87;14.20;;;;;;;2.15;88.20;101970.27;1847796;77;21024;-69
2020/12/21 09:17:57;;;;;;;15.93;12.90;;;;;;;2.16;88.17;101965.15;1843069;77;21633;-66
2020/12/21 09:20:25;;;;;;;15.20;12.37;;;;;;;2.18;88.05;101976.73;1841405;77;21202;-66
2020/12/21 09:22:54;;;;;;;14.20;12.55;;;;;;;2.17;87.82;101978.44;1843663;77;22262;-66
2020/12/21 09:25:23;;;;;;;17.82;14.73;;;;;;;2.15;87.61;101973.70;1841335;77;21621;-67
2020/12/21 09:27:51;;;;;;;24.90;17.02;;;;;;;2.13;87.65;101974.11;1843844;77;21598;-67
2020/12/21 09:30:19;;;;;;;37.88;23.32;;;;;;;2.15;87.74;101974.12;1842434;77;21571;-67
2020/12/21 09:32:48;;;;;;;30.10;18.55;;;;;;;2.16;87.58;101971.99;1842814;77;21662;-67
2020/12/21 09:35:16;;;;;;;25.43;16.70;;;;;;;2.17;87.48;101975.00;1840486;77;22411;-68
2020/12/21 09:37:45;;;;;;;23.15;16.27;;;;;;;2.18;87.28;101971.59;1769659;81;21670;-68
2020/12/21 09:40:15;;;;;;;20.17;15.25;;;;;;;2.17;87.19;101969.44;1775281;80;20986;-67
2020/12/21 09:42:43;;;;;;;19.85;14.93;;;;;;;2.17;87.16;101972.02;1802687;78;21082;-64
2020/12/21 09:45:12;;;;;;;21.30;16.30;;;;;;;2.16;87.13;101970.29;1770650;81;21634;-66
2020/12/21 09:47:44;;;;;;;23.45;17.52;;;;;;;2.15;87.09;101972.42;1786265;79;21365;-70
2020/12/21 09:50:13;;;;;;;27.42;19.37;;;;;;;2.13;87.15;101967.69;1770712;79;21025;-71
2020/12/21 09:52:43;;;;;;;25.90;19.00;;;;;;;2.12;87.35;101967.67;1801071;79;21086;-71
2020/12/21 09:55:13;;;;;;;35.60;21.52;;;;;;;2.13;87.37;101970.26;1801277;79;21058;-71
2020/12/21 09:57:43;;;;;;;32.50;21.40;;;;;;;2.14;87.31;101974.97;1799205;78;21089;-70
2020/12/21 10:00:12;;;;;;;43.23;22.60;;;;;;;2.15;87.33;101972.84;1799313;78;21196;-70
2020/12/21 10:02:41;;;;;;;26.90;18.85;;;;;;;2.15;87.28;101971.56;1775669;79;21041;-70
2020/12/21 10:05:09;;;;;;;28.73;19.02;;;;;;;2.15;87.12;101970.27;1763202;80;21045;-71
2020/12/21 10:07:44;;;;;;;33.98;21.82;;;;;;;2.15;87.11;101974.12;1784247;80;21714;-71
2020/12/21 10:10:13;;;;;;;26.35;19.57;;;;;;;2.14;87.13;101973.27;1771765;79;21022;-70
2020/12/21 10:12:41;;;;;;;27.22;19.52;;;;;;;2.14;87.11;101973.27;1771939;80;21139;-71
2020/12/21 10:15:10;;;;;;;30.35;21.87;;;;;;;2.10;86.98;101972.80;1769713;79;21651;-71
2020/12/21 10:17:39;;;;;;;23.52;17.67;;;;;;;2.08;87.02;101973.63;1721854;80;21025;-73
2020/12/21 10:20:07;;;;;;;23.22;18.52;;;;;;;2.08;87.28;101973.63;1786934;79;21033;-70
2020/12/21 10:22:35;;;;;;;24.82;19.12;;;;;;;2.07;87.22;101977.91;1775927;80;21072;-67
2020/12/21 10:25:05;;;;;;;26.12;18.42;;;;;;;2.08;86.89;101971.05;1776102;80;21329;-72
2020/12/21 10:27:34;;;;;;;23.62;17.45;;;;;;;2.07;87.07;101974.47;1774440;80;21106;-69
2020/12/21 10:30:02;;;;;;;23.05;17.70;;;;;;;2.08;86.97;101973.20;1775995;79;21073;-69
2020/12/21 10:32:30;;;;;;;24.27;17.77;;;;;;;2.07;86.73;101968.91;1776039;80;21678;-71
2020/12/21 10:34:59;;;;;;;24.47;17.27;;;;;;;2.07;86.75;101974.47;1772638;80;21626;-69
2020/12/21 10:37:28;;;;;;;24.30;17.80;;;;;;;2.07;86.71;101975.33;1749609;79;22070;-70
2020/12/21 10:39:56;;;;;;;22.87;17.92;;;;;;;2.07;86.77;101966.34;1744708;82;21040;-71
2020/12/21 10:42:26;;;;;;;24.85;16.65;;;;;;;2.10;86.74;101975.36;1756756;80;21056;-73
2020/12/21 10:44:54;;;;;;;29.50;20.27;;;;;;;2.09;86.74;101973.64;1756670;80;21031;-74
2020/12/21 10:47:23;;;;;;;28.12;19.48;;;;;;;2.08;86.47;101968.06;1801773;78;21017;-73
2020/12/21 10:49:51;;;;;;;31.82;21.00;;;;;;;2.10;86.37;101966.80;1801035;79;22109;-75
2020/12/21 10:52:19;;;;;;;26.02;18.92;;;;;;;2.11;86.41;101971.09;1797878;79;21706;-72
2020/12/21 10:54:48;;;;;;;25.62;19.25;;;;;;;2.14;86.49;101968.55;1798223;79;21010;-73
2020/12/21 10:57:18;;;;;;;33.28;20.95;;;;;;;2.16;86.30;101968.14;1750297;80;21045;-71
2020/12/21 10:59:46;;;;;;;39.05;26.97;;;;;;;2.18;86.30;101970.30;1778593;80;20954;-75
2020/12/21 11:02:15;;;;;;;28.32;19.52;;;;;;;2.22;86.35;101966.91;1766389;80;21379;-73
2020/12/21 11:04:45;;;;;;;41.13;24.10;;;;;;;2.23;86.18;101969.50;1776297;78;21065;-72
2020/12/21 11:07:13;;;;;;;42.15;24.65;;;;;;;2.21;86.12;101967.34;1821618;78;22103;-74
2020/12/21 11:09:49;;;;;;;36.90;22.00;;;;;;;2.19;86.11;101966.89;1867650;76;21003;-72
2020/12/21 11:12:15;;;;;;;40.05;24.85;;;;;;;2.17;86.58;101968.16;1841543;76;21756;-73
2020/12/21 11:14:43;;;;;;;45.63;26.97;;;;;;;2.17;86.50;101968.58;1863501;76;21750;-73
2020/12/21 11:17:11;;;;;;;40.10;23.52;;;;;;;2.15;86.49;101971.14;1841970;76;21037;-74
2020/12/21 11:19:40;;;;;;;35.08;21.27;;;;;;;2.11;86.34;101964.24;1837526;78;21013;-74
2020/12/21 11:22:08;;;;;;;39.85;23.45;;;;;;;2.08;86.41;101962.06;1838010;78;20978;-73
2020/12/21 11:24:37;;;;;;;47.40;24.20;;;;;;;2.03;86.59;101963.30;1765480;81;21042;-72
2020/12/21 11:27:05;;;;;;;41.63;23.70;;;;;;;2.00;86.79;101961.98;1801960;79;21135;-73
2020/12/21 11:29:33;;;;;;;34.20;20.55;;;;;;;1.97;87.03;101960.70;1801810;79;20923;-73